Maribel — LAGU6 — position and weather

sailwx.info

Track history (hours):
 
Tides and Currents Weather Stations Pressure Air Temp Water Temp Dewpoint Dewpoint Depression Visibility Wind Speed Wind Dir Waves Ship Positions

Maribel

Last reported at 2017-Mar-21 08:15 UTC. Time now 2017-Mar-25 00:01 UTC.
Position N 01°18' E 103°41'.

Length 228 m; draft 7 m.

Type: Tanker. MMSI: 257872000.

Date/timePositionNaut miles runAvg speedWind from/ knotsBaromVisibWave heightAir tempDewpointWater temp
2017-Mar-21 08:15N 01°18' E 103°41'0 0.4
2017-Mar-21 07:34N 01°18' E 103°41'1 0.8
2017-Mar-21 06:34N 01°17' E 103°40'3 3.4
2017-Mar-21 05:34N 01°14' E 103°40'5 5.2
2017-Mar-21 04:34N 01°10' E 103°43'0 0.1
2017-Mar-21 03:34N 01°10' E 103°43'0 0.0
2017-Mar-21 02:34N 01°10' E 103°43'0 0.0
2017-Mar-21 01:33N 01°10' E 103°43'0 0.0
2017-Mar-21 00:33N 01°10' E 103°43'0 0.0
2017-Mar-20 23:33N 01°10' E 103°43'0 0.0
2017-Mar-20 22:33N 01°10' E 103°43'0 0.0
2017-Mar-20 21:34N 01°10' E 103°43'0 0.1
2017-Mar-20 20:33N 01°10' E 103°43'0 0.1
2017-Mar-20 19:33N 01°10' E 103°43'0 0.0
2017-Mar-20 18:33N 01°10' E 103°43'0 0.0
2017-Mar-20 17:33N 01°10' E 103°43'0 0.2
2017-Mar-20 16:33N 01°10' E 103°43'0 0.1
2017-Mar-20 15:33N 01°10' E 103°43'0 0.1
2017-Mar-20 14:34N 01°10' E 103°43'0 0.1
2017-Mar-20 13:33N 01°10' E 103°43'4 3.6
2017-Mar-20 12:33N 01°10' E 103°47'3 3.3
2017-Mar-20 11:33N 01°11' E 103°50'7 6.8
2017-Mar-20 10:33N 01°14' E 103°56'  
Track history (hours):
 
Tides and Currents Weather Stations Pressure Air Temp Water Temp Dewpoint Dewpoint Depression Visibility Wind Speed Wind Dir Waves Ship Positions

Maribel

Last reported at 2017-Mar-21 08:15 UTC. Time now 2017-Mar-25 00:01 UTC.
Position N 01°18' E 103°41'.

Length 228 m; draft 7 m.

Type: Tanker. MMSI: 257872000.

Date/timePositionNaut miles runAvg speedWind from/ knotsBaromVisibWave heightAir tempDewpointWater temp
2017-Mar-21 08:15N 01°18' E 103°41'0 0.4
2017-Mar-21 07:34N 01°18' E 103°41'1 0.8
2017-Mar-21 06:34N 01°17' E 103°40'3 3.4
2017-Mar-21 05:34N 01°14' E 103°40'5 5.2
2017-Mar-21 04:34N 01°10' E 103°43'0 0.1
2017-Mar-21 03:34N 01°10' E 103°43'0 0.0
2017-Mar-21 02:34N 01°10' E 103°43'0 0.0
2017-Mar-21 01:33N 01°10' E 103°43'0 0.0
2017-Mar-21 00:33N 01°10' E 103°43'0 0.0
2017-Mar-20 23:33N 01°10' E 103°43'0 0.0
2017-Mar-20 22:33N 01°10' E 103°43'0 0.0
2017-Mar-20 21:34N 01°10' E 103°43'0 0.1
2017-Mar-20 20:33N 01°10' E 103°43'0 0.1
2017-Mar-20 19:33N 01°10' E 103°43'0 0.0
2017-Mar-20 18:33N 01°10' E 103°43'0 0.0
2017-Mar-20 17:33N 01°10' E 103°43'0 0.2
2017-Mar-20 16:33N 01°10' E 103°43'0 0.1
2017-Mar-20 15:33N 01°10' E 103°43'0 0.1
2017-Mar-20 14:34N 01°10' E 103°43'0 0.1
2017-Mar-20 13:33N 01°10' E 103°43'4 3.6
2017-Mar-20 12:33N 01°10' E 103°47'3 3.3
2017-Mar-20 11:33N 01°11' E 103°50'7 6.8
2017-Mar-20 10:33N 01°14' E 103°56'  

Dump ship's entire track history